createdAt,value
2023-05-07T00:01:32.481Z,36.90
2023-05-07T00:04:02.134Z,37.00
2023-05-07T00:06:30.380Z,37.50
2023-05-07T00:08:59.190Z,37.00
2023-05-07T00:11:27.752Z,37.20
2023-05-07T00:13:55.875Z,36.90
2023-05-07T00:16:24.148Z,36.90
2023-05-07T00:18:52.252Z,37.00
2023-05-07T00:21:22.442Z,37.10
2023-05-07T00:23:50.615Z,37.00
2023-05-07T00:26:18.673Z,37.20
2023-05-07T00:28:46.748Z,37.60
2023-05-07T00:31:14.836Z,38.00
2023-05-07T00:33:42.836Z,37.10
2023-05-07T00:36:10.974Z,37.40
2023-05-07T00:38:40.491Z,37.00
2023-05-07T00:41:08.529Z,37.40
2023-05-07T00:43:36.520Z,36.80
2023-05-07T00:46:04.675Z,37.50
2023-05-07T00:48:32.877Z,37.00
2023-05-07T00:51:00.941Z,37.20
2023-05-07T00:53:29.179Z,36.90
2023-05-07T00:55:59.205Z,37.50
2023-05-07T00:58:27.242Z,37.40
2023-05-07T01:00:55.534Z,37.30
2023-05-07T01:03:23.724Z,37.70
2023-05-07T01:05:53.193Z,37.20
2023-05-07T01:08:22.181Z,37.90
2023-05-07T01:10:50.843Z,37.50
2023-05-07T01:13:21.544Z,37.70
2023-05-07T01:15:49.821Z,37.70
2023-05-07T01:18:18.087Z,37.40
2023-05-07T01:20:46.668Z,37.70
2023-05-07T01:23:17.329Z,37.60
2023-05-07T01:25:45.284Z,37.50
2023-05-07T01:28:13.243Z,37.50
2023-05-07T01:30:46.462Z,37.30
2023-05-07T01:33:18.036Z,37.60
2023-05-07T01:35:49.682Z,37.70
2023-05-07T01:38:20.497Z,37.50
2023-05-07T01:40:48.843Z,37.50
2023-05-07T01:43:16.975Z,37.60
2023-05-07T01:45:45.681Z,38.00
2023-05-07T01:48:14.862Z,37.90
2023-05-07T01:50:43.945Z,37.80
2023-05-07T01:53:11.969Z,38.20
2023-05-07T01:55:41.320Z,37.90
2023-05-07T01:58:09.260Z,38.40
2023-05-07T02:00:37.606Z,38.00
2023-05-07T02:03:05.769Z,37.60
2023-05-07T02:05:33.825Z,37.50
2023-05-07T02:08:01.817Z,37.80
2023-05-07T02:10:29.794Z,37.60
2023-05-07T02:12:59.107Z,38.20
2023-05-07T02:15:27.703Z,38.00
2023-05-07T02:18:03.821Z,38.30
2023-05-07T02:20:31.890Z,38.20
2023-05-07T02:22:59.904Z,38.10
2023-05-07T02:25:28.007Z,38.20
2023-05-07T02:27:56.132Z,37.90
2023-05-07T02:30:27.576Z,37.50
2023-05-07T02:32:55.802Z,37.80
2023-05-07T02:35:23.949Z,37.90
2023-05-07T02:37:51.886Z,37.90
2023-05-07T02:40:20.448Z,38.20
2023-05-07T02:42:48.808Z,38.00
2023-05-07T02:45:17.002Z,38.50
2023-05-07T02:47:46.555Z,38.00
2023-05-07T02:50:14.730Z,38.30
2023-05-07T02:52:42.683Z,38.30
2023-05-07T02:55:11.584Z,38.00
2023-05-07T02:57:39.603Z,38.70
2023-05-07T03:00:16.697Z,38.20
2023-05-07T03:02:46.105Z,38.50
2023-05-07T03:05:15.214Z,38.10
2023-05-07T03:07:46.116Z,38.00
2023-05-07T03:10:14.262Z,38.80
2023-05-07T03:12:42.260Z,38.40
2023-05-07T03:15:12.346Z,38.20
2023-05-07T03:17:40.472Z,38.10
2023-05-07T03:20:12.062Z,38.40
2023-05-07T03:22:40.242Z,38.40
2023-05-07T03:25:10.359Z,38.50
2023-05-07T03:27:38.946Z,38.50
2023-05-07T03:30:09.766Z,38.70
2023-05-07T03:32:38.164Z,38.60
2023-05-07T03:35:07.118Z,38.90
2023-05-07T03:37:36.481Z,39.50
2023-05-07T03:40:04.932Z,38.50
2023-05-07T03:42:32.990Z,38.80
2023-05-07T03:45:01.059Z,39.20
2023-05-07T03:47:29.137Z,39.20
2023-05-07T03:49:57.854Z,39.40
2023-05-07T03:52:26.986Z,39.00
2023-05-07T03:54:56.402Z,38.50
2023-05-07T03:57:24.431Z,39.20
2023-05-07T03:59:52.357Z,39.10
2023-05-07T04:02:20.419Z,39.20
2023-05-07T04:04:50.370Z,38.40
2023-05-07T04:07:18.451Z,38.80
2023-05-07T04:09:46.426Z,38.90
2023-05-07T04:12:17.009Z,38.70
2023-05-07T04:14:45.006Z,39.00
2023-05-07T04:17:13.070Z,39.20
2023-05-07T04:19:45.987Z,39.20
2023-05-07T04:22:14.002Z,39.20
2023-05-07T04:24:41.974Z,39.10
2023-05-07T04:27:09.982Z,39.10
2023-05-07T04:29:43.011Z,39.10
2023-05-07T04:32:11.486Z,38.50
2023-05-07T04:34:39.529Z,38.30
2023-05-07T04:37:07.526Z,38.70
2023-05-07T04:39:36.236Z,38.70
2023-05-07T04:42:04.931Z,38.60
2023-05-07T04:44:32.926Z,38.50
2023-05-07T04:47:02.381Z,38.70
2023-05-07T04:49:30.322Z,39.10
2023-05-07T04:51:58.296Z,38.10
2023-05-07T04:54:26.225Z,39.10
2023-05-07T04:56:54.255Z,38.50
2023-05-07T04:59:22.297Z,38.80
2023-05-07T05:01:50.324Z,38.60
2023-05-07T05:04:19.626Z,38.70
2023-05-07T05:06:47.613Z,38.80
2023-05-07T05:09:16.844Z,38.50
2023-05-07T05:11:44.818Z,38.30
2023-05-07T05:14:12.854Z,39.00
2023-05-07T05:16:40.953Z,38.40
2023-05-07T05:19:08.942Z,38.60
2023-05-07T05:21:38.272Z,38.30
2023-05-07T05:24:06.961Z,39.10
2023-05-07T05:26:35.012Z,38.60
2023-05-07T05:29:03.113Z,38.30
2023-05-07T05:31:31.121Z,38.20
2023-05-07T05:33:59.121Z,38.70
2023-05-07T05:36:27.167Z,38.50
2023-05-07T05:38:57.306Z,38.80
2023-05-07T05:41:25.843Z,38.90
2023-05-07T05:43:54.205Z,38.70
2023-05-07T05:46:22.338Z,38.90
2023-05-07T05:48:50.390Z,39.00
2023-05-07T05:51:18.345Z,39.20
2023-05-07T05:53:46.341Z,38.90
2023-05-07T05:56:16.017Z,39.20
2023-05-07T05:58:44.180Z,39.10
2023-05-07T06:01:12.921Z,38.80
2023-05-07T06:03:41.180Z,38.60
2023-05-07T06:06:09.147Z,39.50
2023-05-07T06:08:37.153Z,39.20
2023-05-07T06:11:05.280Z,38.90
2023-05-07T06:13:34.611Z,38.70
2023-05-07T06:16:02.648Z,38.10
2023-05-07T06:18:30.651Z,37.20
2023-05-07T06:20:58.739Z,37.20
2023-05-07T06:23:26.768Z,36.90
2023-05-07T06:25:54.852Z,36.40
2023-05-07T06:28:22.872Z,36.40
2023-05-07T06:30:52.223Z,35.50
2023-05-07T06:33:20.896Z,35.70
2023-05-07T06:35:49.110Z,35.20
2023-05-07T06:38:17.182Z,34.80
2023-05-07T06:40:45.243Z,34.80
2023-05-07T06:43:13.193Z,34.70
2023-05-07T06:45:41.121Z,34.40
2023-05-07T06:48:10.558Z,33.90
2023-05-07T06:50:38.538Z,34.00
2023-05-07T06:53:06.583Z,33.90
2023-05-07T06:55:34.560Z,34.60
2023-05-07T06:58:02.709Z,33.60
2023-05-07T07:00:30.641Z,33.40
2023-05-07T07:03:00.296Z,32.60
2023-05-07T07:05:29.726Z,33.20
2023-05-07T07:07:57.697Z,33.00
2023-05-07T07:10:26.045Z,32.90
2023-05-07T07:12:54.313Z,32.70
2023-05-07T07:15:22.527Z,32.40
2023-05-07T07:17:50.739Z,32.20
2023-05-07T07:20:19.079Z,32.30
2023-05-07T07:22:48.475Z,32.30
2023-05-07T07:25:16.519Z,32.50
2023-05-07T07:27:44.470Z,32.60
2023-05-07T07:30:13.278Z,32.10
2023-05-07T07:32:41.671Z,32.50
2023-05-07T07:35:11.233Z,31.90
2023-05-07T07:37:39.241Z,32.30
2023-05-07T07:40:10.817Z,32.60
2023-05-07T07:42:38.917Z,32.70
2023-05-07T07:45:09.219Z,34.00
2023-05-07T07:47:37.242Z,33.80
2023-05-07T07:50:06.535Z,34.00
2023-05-07T07:52:34.664Z,32.20
2023-05-07T07:55:03.317Z,32.10
2023-05-07T07:57:32.957Z,32.70
2023-05-07T08:00:01.749Z,32.50
2023-05-07T08:02:29.968Z,32.20
2023-05-07T08:04:58.002Z,32.20
2023-05-07T08:07:26.006Z,31.90
2023-05-07T08:09:54.016Z,32.40
2023-05-07T08:12:22.245Z,32.10
2023-05-07T08:14:51.570Z,31.90
2023-05-07T08:17:19.556Z,31.80
2023-05-07T08:19:47.623Z,32.10
2023-05-07T08:22:15.936Z,32.10
2023-05-07T08:24:43.972Z,32.50
2023-05-07T08:27:12.051Z,33.20
2023-05-07T08:29:40.406Z,33.30
2023-05-07T08:32:09.694Z,32.80
2023-05-07T08:34:37.748Z,33.40
2023-05-07T08:37:05.828Z,33.50
2023-05-07T08:39:33.757Z,33.50
2023-05-07T08:42:04.871Z,33.50
2023-05-07T08:44:36.693Z,33.50
2023-05-07T08:47:04.842Z,33.40
2023-05-07T08:49:36.114Z,34.20
2023-05-07T08:52:04.308Z,33.10
2023-05-07T08:54:33.672Z,33.20
2023-05-07T08:57:01.914Z,32.70
2023-05-07T08:59:29.914Z,33.20
2023-05-07T09:01:58.202Z,33.10
2023-05-07T09:04:26.313Z,33.00
2023-05-07T09:06:56.249Z,33.20
2023-05-07T09:09:24.690Z,33.10
2023-05-07T09:11:59.591Z,33.00
2023-05-07T09:14:27.899Z,32.90
2023-05-07T09:16:56.005Z,32.50
2023-05-07T09:19:28.362Z,32.20
2023-05-07T09:22:07.903Z,32.90
2023-05-07T09:24:38.629Z,32.70
2023-05-07T09:27:07.813Z,32.70
2023-05-07T09:29:36.479Z,31.80
2023-05-07T09:32:05.812Z,31.20
2023-05-07T09:34:34.221Z,32.00
2023-05-07T09:37:06.284Z,31.10
2023-05-07T09:39:44.956Z,31.40
2023-05-07T09:42:13.330Z,32.20
2023-05-07T09:44:42.166Z,31.20
2023-05-07T09:47:10.750Z,31.40
2023-05-07T09:49:43.212Z,31.60
2023-05-07T09:52:12.682Z,31.50
2023-05-07T09:54:43.956Z,31.20
2023-05-07T09:57:13.723Z,31.00
2023-05-07T09:59:44.547Z,32.00
2023-05-07T10:02:14.782Z,30.20
2023-05-07T10:04:43.349Z,30.60
2023-05-07T10:07:12.971Z,30.30
2023-05-07T10:09:43.831Z,30.60
2023-05-07T10:12:12.157Z,29.90
2023-05-07T10:14:40.420Z,30.10
2023-05-07T10:17:09.034Z,29.70
2023-05-07T10:19:39.973Z,30.20
2023-05-07T10:22:08.788Z,30.10
2023-05-07T10:24:38.921Z,29.70
2023-05-07T10:27:12.062Z,30.00
2023-05-07T10:29:54.754Z,29.60
2023-05-07T10:32:45.061Z,29.50
2023-05-07T10:35:18.486Z,29.50
2023-05-07T10:37:47.614Z,29.70
2023-05-07T10:40:18.670Z,30.00
2023-05-07T10:42:57.848Z,29.20
2023-05-07T10:45:27.089Z,29.90
2023-05-07T10:50:46.254Z,29.20
2023-05-07T10:53:30.525Z,28.90
2023-05-07T10:56:28.989Z,28.40
2023-05-07T10:58:57.930Z,28.70
2023-05-07T11:01:52.073Z,28.50
2023-05-07T11:04:25.370Z,28.50
2023-05-07T11:07:33.422Z,28.00
2023-05-07T11:10:07.406Z,28.20
2023-05-07T11:12:58.157Z,28.80
2023-05-07T11:15:42.840Z,28.40
2023-05-07T11:18:11.978Z,28.50
2023-05-07T11:20:52.990Z,28.60
2023-05-07T11:24:01.745Z,28.90
2023-05-07T11:26:32.267Z,28.40
2023-05-07T11:29:02.468Z,29.00
2023-05-07T11:31:31.073Z,28.90
2023-05-07T11:33:59.800Z,28.70
2023-05-07T11:36:33.899Z,29.00
2023-05-07T11:39:02.117Z,28.70
2023-05-07T11:41:38.061Z,28.90
2023-05-07T11:44:07.553Z,28.90
2023-05-07T11:46:36.089Z,29.10
2023-05-07T11:49:04.122Z,28.70
2023-05-07T11:51:32.813Z,28.90
2023-05-07T11:54:00.899Z,29.00
2023-05-07T11:56:28.937Z,28.90
2023-05-07T11:58:56.913Z,28.80
2023-05-07T12:01:26.279Z,28.70
2023-05-07T12:03:54.405Z,28.60
2023-05-07T12:06:22.590Z,28.10
2023-05-07T12:08:50.567Z,28.30
2023-05-07T12:11:25.977Z,27.60
2023-05-07T12:13:58.846Z,27.70
2023-05-07T12:16:29.325Z,27.50
2023-05-07T12:18:59.789Z,27.30
2023-05-07T12:21:27.845Z,27.20
2023-05-07T12:23:56.333Z,26.90
2023-05-07T12:26:25.591Z,27.30
2023-05-07T12:28:53.513Z,27.30
2023-05-07T12:31:21.627Z,27.50
2023-05-07T12:33:51.526Z,27.40
2023-05-07T12:36:19.535Z,27.30
2023-05-07T12:38:47.569Z,27.60
2023-05-07T12:41:15.693Z,27.60
2023-05-07T12:43:46.800Z,27.70
2023-05-07T12:46:17.548Z,27.80
2023-05-07T12:48:47.556Z,27.70
2023-05-07T12:51:18.177Z,27.90
2023-05-07T12:53:46.116Z,27.40
2023-05-07T12:56:14.172Z,27.80
2023-05-07T12:58:42.543Z,27.70
2023-05-07T13:01:12.130Z,28.00
2023-05-07T13:03:40.990Z,27.90
2023-05-07T13:06:13.069Z,28.00
2023-05-07T13:08:44.663Z,28.10
2023-05-07T13:11:14.240Z,28.10
2023-05-07T13:13:43.380Z,28.00
2023-05-07T13:16:13.318Z,28.20
2023-05-07T13:18:44.718Z,28.00
2023-05-07T13:21:13.949Z,27.90
2023-05-07T13:23:43.399Z,28.20
2023-05-07T13:26:25.560Z,28.20
2023-05-07T13:28:54.988Z,28.20
2023-05-07T13:31:22.999Z,28.30
2023-05-07T13:33:51.075Z,28.20
2023-05-07T13:36:19.080Z,28.30
2023-05-07T13:38:48.507Z,28.20
2023-05-07T13:41:16.760Z,28.30
2023-05-07T13:43:44.730Z,28.30
2023-05-07T13:46:12.772Z,28.30
2023-05-07T13:48:40.759Z,28.60
2023-05-07T13:51:08.836Z,28.50
2023-05-07T13:53:37.136Z,28.40
2023-05-07T13:56:07.237Z,28.40
2023-05-07T13:58:38.108Z,28.30
2023-05-07T14:01:08.492Z,28.40
2023-05-07T14:03:38.809Z,28.40
2023-05-07T14:06:07.234Z,28.10
2023-05-07T14:08:35.204Z,28.50
2023-05-07T14:11:03.204Z,28.50
2023-05-07T14:13:32.810Z,28.70
2023-05-07T14:16:01.501Z,28.50
2023-05-07T14:18:29.982Z,28.60
2023-05-07T14:20:58.124Z,28.50
2023-05-07T14:23:27.367Z,28.60
2023-05-07T14:25:55.631Z,28.50
2023-05-07T14:28:23.714Z,28.70
2023-05-07T14:30:53.103Z,28.60
2023-05-07T14:33:21.079Z,28.50
2023-05-07T14:35:50.314Z,28.60
2023-05-07T14:38:18.325Z,28.50
2023-05-07T14:40:47.391Z,28.60
2023-05-07T14:43:15.398Z,28.50
2023-05-07T14:45:43.516Z,28.50
2023-05-07T14:48:16.058Z,28.50
2023-05-07T14:50:44.195Z,28.70
2023-05-07T14:53:12.248Z,28.50
2023-05-07T14:55:40.392Z,28.70
2023-05-07T14:58:08.450Z,28.70
2023-05-07T15:00:36.652Z,28.50
2023-05-07T15:03:09.659Z,28.90
2023-05-07T15:05:40.639Z,28.70
2023-05-07T15:08:08.641Z,28.80
2023-05-07T15:10:41.773Z,28.70
2023-05-07T15:13:13.308Z,28.90
2023-05-07T15:15:43.640Z,28.80
2023-05-07T15:18:11.658Z,28.90
2023-05-07T15:20:41.114Z,28.80
2023-05-07T15:23:12.785Z,28.80
2023-05-07T15:25:40.912Z,29.00
2023-05-07T15:28:09.475Z,28.70
2023-05-07T15:30:37.698Z,28.80
2023-05-07T15:33:06.421Z,28.90
2023-05-07T15:35:34.648Z,28.50
2023-05-07T15:38:04.581Z,28.70
2023-05-07T15:40:33.711Z,28.90
2023-05-07T15:43:01.787Z,28.80
2023-05-07T15:45:31.207Z,28.90
2023-05-07T15:47:59.495Z,28.80
2023-05-07T15:50:27.665Z,28.70
2023-05-07T15:52:56.418Z,29.10
2023-05-07T15:55:25.976Z,28.90
2023-05-07T15:57:55.049Z,28.70
2023-05-07T16:00:23.430Z,29.00
2023-05-07T16:02:51.651Z,29.00
2023-05-07T16:05:19.769Z,28.60
2023-05-07T16:07:48.559Z,29.00
2023-05-07T16:10:16.657Z,29.00
2023-05-07T16:12:46.540Z,29.20
2023-05-07T16:15:14.810Z,28.90
2023-05-07T16:17:42.998Z,28.90
2023-05-07T16:20:13.156Z,29.00
2023-05-07T16:22:41.427Z,28.90
2023-05-07T16:25:11.060Z,29.20
2023-05-07T16:27:39.284Z,28.90
2023-05-07T16:30:10.525Z,29.20
2023-05-07T16:32:38.543Z,28.90
2023-05-07T16:35:07.954Z,29.30
2023-05-07T16:37:35.957Z,28.60
2023-05-07T16:40:07.259Z,29.10
2023-05-07T16:42:35.427Z,29.20
2023-05-07T16:45:04.745Z,29.20
2023-05-07T16:47:34.704Z,29.50
2023-05-07T16:50:05.433Z,29.60
2023-05-07T16:52:34.110Z,29.80
2023-05-07T16:55:02.138Z,29.60
2023-05-07T16:57:31.369Z,29.80
2023-05-07T17:00:00.556Z,29.90
2023-05-07T17:02:28.957Z,29.40
2023-05-07T17:04:58.384Z,30.00
2023-05-07T17:07:27.777Z,29.90
2023-05-07T17:09:55.748Z,29.80
2023-05-07T17:12:23.797Z,29.90
2023-05-07T17:14:51.855Z,30.00
2023-05-07T17:17:19.886Z,29.90
2023-05-07T17:19:47.889Z,30.00
2023-05-07T17:22:17.451Z,30.00
2023-05-07T17:24:45.551Z,30.00
2023-05-07T17:27:13.525Z,29.60
2023-05-07T17:29:41.682Z,30.60
2023-05-07T17:32:09.843Z,29.90
2023-05-07T17:34:38.010Z,30.70
2023-05-07T17:37:06.029Z,30.80
2023-05-07T17:39:35.359Z,30.50
2023-05-07T17:42:03.366Z,30.70
2023-05-07T17:44:31.487Z,30.70
2023-05-07T17:46:59.458Z,30.70
2023-05-07T17:49:27.652Z,30.60
2023-05-07T17:51:56.097Z,30.40
2023-05-07T17:54:25.925Z,30.90
2023-05-07T17:56:55.274Z,30.70
2023-05-07T17:59:23.236Z,30.70
2023-05-07T18:01:51.230Z,30.70
2023-05-07T18:04:21.377Z,30.70
2023-05-07T18:06:49.633Z,30.70
2023-05-07T18:09:17.594Z,30.60
2023-05-07T18:11:45.723Z,30.10
2023-05-07T18:14:15.053Z,30.90
2023-05-07T18:16:43.229Z,30.80
2023-05-07T18:19:12.000Z,30.60
2023-05-07T18:21:40.008Z,30.70
2023-05-07T18:24:09.443Z,30.30
2023-05-07T18:26:37.402Z,30.70
2023-05-07T18:29:05.447Z,30.80
2023-05-07T18:31:36.917Z,30.70
2023-05-07T18:34:06.560Z,31.00
2023-05-07T18:36:34.825Z,30.70
2023-05-07T18:39:03.679Z,30.70
2023-05-07T18:41:31.716Z,30.80
2023-05-07T18:43:59.694Z,30.90
2023-05-07T18:46:29.226Z,30.90
2023-05-07T18:48:58.773Z,31.00
2023-05-07T18:51:27.538Z,31.20
2023-05-07T18:53:55.517Z,30.80
2023-05-07T18:56:23.499Z,31.20
2023-05-07T18:58:51.465Z,31.00
2023-05-07T19:01:19.544Z,31.10
2023-05-07T19:03:47.565Z,31.10
2023-05-07T19:06:16.947Z,31.20
2023-05-07T19:08:45.052Z,31.40
2023-05-07T19:11:13.062Z,30.90
2023-05-07T19:13:41.123Z,31.40
2023-05-07T19:16:10.282Z,31.40
2023-05-07T19:18:38.400Z,30.80
2023-05-07T19:21:06.568Z,31.10
2023-05-07T19:23:41.431Z,31.10
2023-05-07T19:26:10.098Z,31.30
2023-05-07T19:28:39.093Z,31.40
2023-05-07T19:31:08.384Z,31.20
2023-05-07T19:33:36.426Z,31.20
2023-05-07T19:36:04.775Z,31.50
2023-05-07T19:38:32.800Z,31.10
2023-05-07T19:41:02.596Z,31.50
2023-05-07T19:43:35.854Z,31.10
2023-05-07T19:46:03.950Z,31.30
2023-05-07T19:48:32.083Z,31.40
2023-05-07T19:51:00.525Z,31.50
2023-05-07T19:53:30.097Z,31.30
2023-05-07T19:56:07.268Z,30.80
2023-05-07T19:58:36.206Z,31.30
2023-05-07T20:01:06.152Z,31.40
2023-05-07T20:03:35.459Z,31.00
2023-05-07T20:06:04.150Z,31.50
2023-05-07T20:08:32.245Z,31.40
2023-05-07T20:11:00.655Z,31.40
2023-05-07T20:13:30.007Z,31.90
2023-05-07T20:15:59.680Z,31.90
2023-05-07T20:18:29.593Z,31.50
2023-05-07T20:20:57.901Z,31.40
2023-05-07T20:23:26.389Z,31.50
2023-05-07T20:25:54.540Z,31.40
2023-05-07T20:28:22.526Z,31.60
2023-05-07T20:30:52.056Z,31.60
2023-05-07T20:33:20.064Z,31.70
2023-05-07T20:35:48.125Z,31.60
2023-05-07T20:38:16.292Z,31.60
2023-05-07T20:40:44.320Z,32.00
2023-05-07T20:43:12.455Z,32.00
2023-05-07T20:45:40.527Z,31.80
2023-05-07T20:48:09.946Z,31.20
2023-05-07T20:50:37.916Z,31.70
2023-05-07T20:53:05.909Z,32.00
2023-05-07T20:55:33.941Z,32.10
2023-05-07T20:58:02.096Z,31.90
2023-05-07T21:00:30.160Z,31.80
2023-05-07T21:02:58.163Z,32.00
2023-05-07T21:05:27.543Z,31.80
2023-05-07T21:07:56.267Z,31.90
2023-05-07T21:10:24.321Z,32.20
2023-05-07T21:12:52.359Z,31.90
2023-05-07T21:15:20.367Z,32.00
2023-05-07T21:17:48.442Z,32.00
2023-05-07T21:20:16.690Z,32.20
2023-05-07T21:22:46.055Z,31.30
2023-05-07T21:25:14.244Z,31.70
2023-05-07T21:27:42.217Z,32.00
2023-05-07T21:30:12.265Z,32.10
2023-05-07T21:32:40.469Z,31.90
2023-05-07T21:35:09.649Z,32.00
2023-05-07T21:37:37.779Z,32.00
2023-05-07T21:40:09.438Z,31.90
2023-05-07T21:42:37.369Z,32.10
2023-05-07T21:45:07.039Z,32.10
2023-05-07T21:47:35.134Z,32.20
2023-05-07T21:50:03.221Z,31.70
2023-05-07T21:52:31.303Z,32.30
2023-05-07T21:54:59.305Z,32.10
2023-05-07T21:57:28.673Z,32.20
2023-05-07T21:59:56.722Z,31.90
2023-05-07T22:02:24.943Z,32.10
2023-05-07T22:04:53.073Z,31.90
2023-05-07T22:07:21.432Z,32.00
2023-05-07T22:09:49.415Z,32.40
2023-05-07T22:12:17.492Z,32.00
2023-05-07T22:14:46.886Z,32.10
2023-05-07T22:17:14.859Z,31.90
2023-05-07T22:19:42.839Z,32.40
2023-05-07T22:22:11.365Z,32.10
2023-05-07T22:24:39.439Z,32.20
2023-05-07T22:27:07.407Z,32.00
2023-05-07T22:29:35.506Z,32.20
2023-05-07T22:32:05.252Z,31.90
2023-05-07T22:34:34.433Z,32.00
2023-05-07T22:37:02.454Z,33.50
2023-05-07T22:39:34.313Z,33.30
2023-05-07T22:42:03.160Z,33.50
2023-05-07T22:44:31.154Z,33.60
2023-05-07T22:46:59.170Z,33.20
2023-05-07T22:49:28.501Z,33.80
2023-05-07T22:51:56.459Z,33.80
2023-05-07T22:54:25.563Z,33.90
2023-05-07T22:56:54.099Z,33.90
2023-05-07T22:59:22.452Z,33.90
2023-05-07T23:01:50.746Z,34.10
2023-05-07T23:04:18.759Z,33.80
2023-05-07T23:06:48.195Z,33.90
2023-05-07T23:09:16.374Z,34.20
2023-05-07T23:11:44.418Z,34.30
2023-05-07T23:14:12.558Z,33.80
2023-05-07T23:16:40.649Z,34.10
2023-05-07T23:19:08.712Z,34.50
2023-05-07T23:21:36.863Z,34.00
2023-05-07T23:24:07.507Z,34.50
2023-05-07T23:26:35.538Z,34.60
2023-05-07T23:29:04.520Z,34.40
2023-05-07T23:31:32.638Z,34.40
2023-05-07T23:34:00.619Z,34.70
2023-05-07T23:36:29.251Z,34.50
2023-05-07T23:38:57.229Z,34.60
2023-05-07T23:41:26.773Z,34.70
2023-05-07T23:43:54.938Z,34.80
2023-05-07T23:46:23.065Z,34.50
2023-05-07T23:48:51.103Z,34.50
2023-05-07T23:51:19.121Z,34.80
2023-05-07T23:53:47.086Z,34.70
2023-05-07T23:56:15.133Z,34.40
2023-05-07T23:58:44.458Z,35.00
